createdAt,value
2024-01-31T00:00:05.858Z,28.8740
2024-01-31T00:00:16.949Z,28.8790
2024-01-31T00:00:28.004Z,28.8910
2024-01-31T00:00:39.087Z,28.8840
2024-01-31T00:00:50.183Z,28.8570
2024-01-31T00:01:01.351Z,28.8630
2024-01-31T00:01:12.497Z,28.8820
2024-01-31T00:01:23.808Z,28.8430
2024-01-31T00:01:35.004Z,28.8710
2024-01-31T00:01:46.206Z,28.8650
2024-01-31T00:01:57.330Z,28.8710
2024-01-31T00:02:08.500Z,28.8920
2024-01-31T00:02:19.535Z,28.9030
2024-01-31T00:02:30.602Z,28.9080
2024-01-31T00:02:41.641Z,28.9120
2024-01-31T00:02:52.688Z,28.9180
2024-01-31T00:03:03.785Z,28.9070
2024-01-31T00:03:14.824Z,28.9120
2024-01-31T00:03:25.853Z,28.9230
2024-01-31T00:03:36.914Z,28.9230
2024-01-31T00:03:47.961Z,28.9390
2024-01-31T00:03:59.051Z,28.9340
2024-01-31T00:04:10.320Z,28.9500
2024-01-31T00:04:21.452Z,28.9680
2024-01-31T00:04:32.707Z,28.9560
2024-01-31T00:04:44.061Z,28.9610
2024-01-31T00:04:55.179Z,28.9610
2024-01-31T00:05:06.640Z,28.9560
2024-01-31T00:05:18.063Z,28.9680
2024-01-31T00:05:29.335Z,28.9680
2024-01-31T00:05:40.502Z,28.9840
2024-01-31T00:05:51.617Z,28.9780
2024-01-31T00:06:02.697Z,28.9560
2024-01-31T00:06:13.765Z,28.9680
2024-01-31T00:06:24.861Z,28.9730
2024-01-31T00:06:35.960Z,28.9680
2024-01-31T00:06:47.021Z,28.9610
2024-01-31T00:06:58.196Z,28.9730
2024-01-31T00:07:10.517Z,29.0110
2024-01-31T00:07:21.602Z,28.9940
2024-01-31T00:07:33.074Z,28.9940
2024-01-31T00:07:44.537Z,29.0270
2024-01-31T00:07:55.621Z,29.0110
2024-01-31T00:08:06.669Z,29.0050
2024-01-31T00:08:17.742Z,29.0000
2024-01-31T00:08:28.811Z,29.0000
2024-01-31T00:08:39.891Z,29.0160
2024-01-31T00:08:50.947Z,29.0050
2024-01-31T00:09:02.009Z,29.0270
2024-01-31T00:09:13.049Z,29.0160
2024-01-31T00:09:24.101Z,29.0110
2024-01-31T00:09:35.160Z,29.0000
2024-01-31T00:09:46.238Z,29.0110
2024-01-31T00:09:57.305Z,29.0160
2024-01-31T00:10:08.398Z,29.0160
2024-01-31T00:10:19.602Z,29.0320
2024-01-31T00:10:30.727Z,29.0430
2024-01-31T00:10:41.851Z,29.0500
2024-01-31T00:10:52.967Z,29.0380
2024-01-31T00:11:04.017Z,29.0430
2024-01-31T00:11:15.080Z,29.0500
2024-01-31T00:11:26.125Z,29.0430
2024-01-31T00:11:37.210Z,29.0550
2024-01-31T00:11:48.232Z,29.0600
2024-01-31T00:11:59.300Z,29.0660
2024-01-31T00:12:10.375Z,29.0820
2024-01-31T00:12:21.432Z,29.0660
2024-01-31T00:12:32.494Z,29.0710
2024-01-31T00:12:43.547Z,29.0500
2024-01-31T00:12:54.659Z,29.0600
2024-01-31T00:13:05.716Z,29.0710
2024-01-31T00:13:16.824Z,29.0710
2024-01-31T00:13:27.895Z,29.0930
2024-01-31T00:13:39.075Z,29.0820
2024-01-31T00:13:50.186Z,29.0980
2024-01-31T00:14:01.214Z,29.0870
2024-01-31T00:14:12.249Z,29.0820
2024-01-31T00:14:23.327Z,29.1040
2024-01-31T00:14:34.376Z,29.1090
2024-01-31T00:14:45.435Z,29.1140
2024-01-31T00:14:56.500Z,29.1200
2024-01-31T00:15:07.586Z,29.1320
2024-01-31T00:15:18.610Z,29.1370
2024-01-31T00:15:29.662Z,29.1480
2024-01-31T00:15:40.769Z,29.1420
2024-01-31T00:15:51.800Z,29.1480
2024-01-31T00:16:02.892Z,29.1530
2024-01-31T00:16:13.953Z,29.1590
2024-01-31T00:16:25.006Z,29.1250
2024-01-31T00:16:36.126Z,29.0930
2024-01-31T00:16:47.242Z,29.0980
2024-01-31T00:16:58.284Z,29.1370
2024-01-31T00:17:09.332Z,29.1420
2024-01-31T00:17:20.390Z,29.1530
2024-01-31T00:17:31.403Z,29.1530
2024-01-31T00:17:42.489Z,29.1750
2024-01-31T00:17:53.592Z,29.1690
2024-01-31T00:18:04.729Z,29.1640
2024-01-31T00:18:15.918Z,29.1750
2024-01-31T00:18:27.158Z,29.1800
2024-01-31T00:18:38.362Z,29.1800
2024-01-31T00:18:49.476Z,29.1860
2024-01-31T00:19:00.666Z,29.1750
2024-01-31T00:19:12.147Z,29.1800
2024-01-31T00:19:23.424Z,29.1800
2024-01-31T00:19:34.734Z,29.1960
2024-01-31T00:19:46.098Z,29.2140
2024-01-31T00:19:57.281Z,29.1960
2024-01-31T00:20:08.443Z,29.1860
2024-01-31T00:20:19.559Z,29.1910
2024-01-31T00:20:30.621Z,29.1860
2024-01-31T00:20:42.068Z,29.2020
2024-01-31T00:20:53.144Z,29.2070
2024-01-31T00:21:04.228Z,29.1860
2024-01-31T00:21:15.313Z,29.1960
2024-01-31T00:21:28.338Z,29.1910
2024-01-31T00:21:39.639Z,29.2570
2024-01-31T00:21:50.718Z,29.2460
2024-01-31T00:22:01.866Z,29.2510
2024-01-31T00:22:12.997Z,29.2410
2024-01-31T00:22:24.112Z,29.2460
2024-01-31T00:22:35.281Z,29.2250
2024-01-31T00:22:46.474Z,29.2190
2024-01-31T00:22:57.566Z,29.2140
2024-01-31T00:23:08.627Z,29.2140
2024-01-31T00:23:19.697Z,29.2140
2024-01-31T00:23:30.718Z,29.1760
2024-01-31T00:23:41.799Z,29.1380
2024-01-31T00:23:52.840Z,29.1220
2024-01-31T00:24:03.898Z,29.1120
2024-01-31T00:24:14.960Z,29.1330
2024-01-31T00:24:26.018Z,29.1380
2024-01-31T00:24:37.093Z,29.1440
2024-01-31T00:24:48.135Z,29.1660
2024-01-31T00:24:59.232Z,29.1860
2024-01-31T00:25:10.339Z,29.2040
2024-01-31T00:25:21.493Z,29.2150
2024-01-31T00:25:32.586Z,29.2210
2024-01-31T00:25:43.693Z,29.2260
2024-01-31T00:25:54.721Z,29.2260
2024-01-31T00:26:05.781Z,29.2480
2024-01-31T00:26:16.856Z,29.2310
2024-01-31T00:26:27.918Z,29.2210
2024-01-31T00:26:38.969Z,29.1940
2024-01-31T00:26:50.024Z,29.1940
2024-01-31T00:27:01.114Z,29.1990
2024-01-31T00:27:12.175Z,29.1880
2024-01-31T00:27:23.232Z,29.2040
2024-01-31T00:27:34.289Z,29.2150
2024-01-31T00:27:45.329Z,29.2260
2024-01-31T00:27:56.444Z,29.2370
2024-01-31T00:28:07.519Z,29.2530
2024-01-31T00:28:18.703Z,29.2650
2024-01-31T00:28:29.828Z,29.2590
2024-01-31T00:28:40.980Z,29.2260
2024-01-31T00:28:52.066Z,29.2480
2024-01-31T00:29:03.145Z,29.2590
2024-01-31T00:29:14.224Z,29.2650
2024-01-31T00:29:25.301Z,29.2810
2024-01-31T00:29:38.955Z,29.2870
2024-01-31T00:29:50.430Z,29.3720
2024-01-31T00:30:01.492Z,29.3500
2024-01-31T00:30:12.551Z,29.3230
2024-01-31T00:30:23.598Z,29.3280
2024-01-31T00:30:34.649Z,29.3340
2024-01-31T00:30:45.750Z,29.3340
2024-01-31T00:30:56.815Z,29.3180
2024-01-31T00:31:07.926Z,29.3180
2024-01-31T00:31:19.036Z,29.3180
2024-01-31T00:31:30.156Z,29.3120
2024-01-31T00:31:41.229Z,29.3340
2024-01-31T00:31:52.316Z,29.3230
2024-01-31T00:32:03.354Z,29.3340
2024-01-31T00:32:14.411Z,29.3120
2024-01-31T00:32:25.473Z,29.3180
2024-01-31T00:32:36.576Z,29.3340
2024-01-31T00:32:47.665Z,29.3280
2024-01-31T00:32:58.746Z,29.3230
2024-01-31T00:33:09.867Z,29.3280
2024-01-31T00:33:20.947Z,29.3390
2024-01-31T00:33:32.036Z,29.3390
2024-01-31T00:33:43.109Z,29.3500
2024-01-31T00:33:54.222Z,29.3550
2024-01-31T00:34:05.389Z,29.3440
2024-01-31T00:34:16.652Z,29.3280
2024-01-31T00:34:27.790Z,29.3660
2024-01-31T00:34:38.914Z,29.3660
2024-01-31T00:34:50.007Z,29.3550
2024-01-31T00:35:01.133Z,29.3610
2024-01-31T00:35:12.267Z,29.3550
2024-01-31T00:35:23.354Z,29.3660
2024-01-31T00:35:34.397Z,29.3610
2024-01-31T00:35:45.438Z,29.3550
2024-01-31T00:35:56.511Z,29.3500
2024-01-31T00:36:07.589Z,29.3550
2024-01-31T00:36:18.627Z,29.3500
2024-01-31T00:36:29.692Z,29.3440
2024-01-31T00:36:40.753Z,29.3410
2024-01-31T00:36:51.780Z,29.3530
2024-01-31T00:37:02.916Z,29.3500
2024-01-31T00:37:14.060Z,29.3550
2024-01-31T00:37:25.204Z,29.3610
2024-01-31T00:37:36.302Z,29.3720
2024-01-31T00:37:47.374Z,29.3660
2024-01-31T00:37:58.423Z,29.3780
2024-01-31T00:38:09.483Z,29.3780
2024-01-31T00:38:20.522Z,29.3890
2024-01-31T00:38:31.602Z,29.3840
2024-01-31T00:38:42.656Z,29.3840
2024-01-31T00:38:53.710Z,29.3890
2024-01-31T00:39:04.780Z,29.3890
2024-01-31T00:39:15.845Z,29.3660
2024-01-31T00:39:26.894Z,29.3950
2024-01-31T00:39:37.957Z,29.3780
2024-01-31T00:39:49.021Z,29.3950
2024-01-31T00:40:00.201Z,29.3780
2024-01-31T00:40:11.729Z,29.3390
2024-01-31T00:40:23.011Z,29.3140
2024-01-31T00:40:34.157Z,29.3240
2024-01-31T00:40:45.206Z,29.3630
2024-01-31T00:40:56.284Z,29.3630
2024-01-31T00:41:07.368Z,29.3740
2024-01-31T00:41:18.420Z,29.3800
2024-01-31T00:41:29.469Z,29.3630
2024-01-31T00:41:40.532Z,29.3900
2024-01-31T00:41:51.661Z,29.3960
2024-01-31T00:42:02.724Z,29.3960
2024-01-31T00:42:13.778Z,29.4120
2024-01-31T00:42:24.852Z,29.4110
2024-01-31T00:42:35.869Z,29.4110
2024-01-31T00:42:46.948Z,29.3950
2024-01-31T00:42:58.043Z,29.3950
2024-01-31T00:43:09.187Z,29.4050
2024-01-31T00:43:20.345Z,29.4160
2024-01-31T00:43:31.527Z,29.4110
2024-01-31T00:43:42.601Z,29.4110
2024-01-31T00:43:53.667Z,29.4120
2024-01-31T00:44:04.706Z,29.4270
2024-01-31T00:44:15.736Z,29.4110
2024-01-31T00:44:26.797Z,29.4210
2024-01-31T00:44:37.848Z,29.4270
2024-01-31T00:44:48.903Z,29.4320
2024-01-31T00:44:59.976Z,29.4270
2024-01-31T00:45:11.126Z,29.4480
2024-01-31T00:45:22.169Z,29.4540
2024-01-31T00:45:33.301Z,29.4540
2024-01-31T00:45:44.322Z,29.4540
2024-01-31T00:45:55.473Z,29.4660
2024-01-31T00:46:06.623Z,29.4660
2024-01-31T00:46:17.814Z,29.4540
2024-01-31T00:46:28.973Z,29.4770
2024-01-31T00:46:40.227Z,29.4770
2024-01-31T00:46:51.360Z,29.4930
2024-01-31T00:47:02.531Z,29.4770
2024-01-31T00:49:09.329Z,29.4880
2024-01-31T00:49:09.329Z,30.0500
2024-01-31T00:49:09.329Z,30.1170
2024-01-31T00:49:25.288Z,29.8440
2024-01-31T00:49:37.436Z,29.7650
2024-01-31T00:49:48.619Z,29.6660
2024-01-31T00:49:59.731Z,29.5920
2024-01-31T00:50:11.010Z,29.5920
2024-01-31T00:50:22.096Z,29.6110
2024-01-31T00:50:33.110Z,29.5950
2024-01-31T00:50:44.220Z,29.5890
2024-01-31T00:50:55.415Z,29.5710
2024-01-31T00:51:06.636Z,29.5490
2024-01-31T00:51:17.829Z,29.5000
2024-01-31T00:51:29.021Z,29.4830
2024-01-31T00:51:40.205Z,29.4970
2024-01-31T00:51:51.420Z,29.4630
2024-01-31T00:52:02.644Z,29.5020
2024-01-31T00:52:13.833Z,29.5020
2024-01-31T00:52:24.938Z,29.5020
2024-01-31T00:52:36.078Z,29.4680
2024-01-31T00:52:47.318Z,29.4860
2024-01-31T00:52:58.375Z,29.5020
2024-01-31T00:53:09.462Z,29.5080
2024-01-31T00:53:20.677Z,29.5040
2024-01-31T00:53:31.898Z,29.5040
2024-01-31T00:53:43.094Z,29.5090
2024-01-31T00:53:54.300Z,29.4980
2024-01-31T00:54:05.494Z,29.4370
2024-01-31T00:54:16.734Z,29.4480
2024-01-31T00:54:27.795Z,29.4660
2024-01-31T00:54:38.850Z,29.4600
2024-01-31T00:54:49.910Z,29.4660
2024-01-31T00:55:00.979Z,29.4710
2024-01-31T00:55:12.107Z,29.4820
2024-01-31T00:55:23.232Z,29.4540
2024-01-31T00:55:34.329Z,29.4540
2024-01-31T00:55:45.409Z,29.4600
2024-01-31T00:55:56.470Z,29.4480
2024-01-31T00:56:07.557Z,29.4430
2024-01-31T00:56:18.597Z,29.4600
2024-01-31T00:56:29.660Z,29.4160
2024-01-31T00:56:40.724Z,29.4070
2024-01-31T00:56:51.800Z,29.3900
2024-01-31T00:57:02.837Z,29.3900
2024-01-31T00:57:13.910Z,29.4120
2024-01-31T00:57:24.980Z,29.4350
2024-01-31T00:57:36.044Z,29.4480
2024-01-31T00:57:47.099Z,29.4430
2024-01-31T00:57:58.183Z,29.4320
2024-01-31T00:58:09.304Z,29.4160
2024-01-31T00:58:20.382Z,29.4050
2024-01-31T00:58:31.448Z,29.4050
2024-01-31T00:58:42.542Z,29.4270
2024-01-31T00:58:53.641Z,29.4320
2024-01-31T00:59:04.678Z,29.4480
2024-01-31T00:59:15.782Z,29.4480
2024-01-31T00:59:26.939Z,29.4370
2024-01-31T00:59:38.007Z,29.4430
2024-01-31T00:59:49.063Z,29.4370
2024-01-31T01:00:00.161Z,29.4370
2024-01-31T01:00:11.255Z,29.4230
2024-01-31T01:00:22.296Z,29.4400
2024-01-31T01:00:33.343Z,29.4350
2024-01-31T01:00:44.429Z,29.4170
2024-01-31T01:00:55.535Z,29.4170
2024-01-31T01:01:06.773Z,29.4230
2024-01-31T01:01:17.913Z,29.4290
2024-01-31T01:01:29.024Z,29.4170
2024-01-31T01:01:40.171Z,29.4070
2024-01-31T01:01:51.367Z,29.4010
2024-01-31T01:02:02.521Z,29.4170
2024-01-31T01:02:13.601Z,29.4010
2024-01-31T01:02:24.647Z,29.4010
2024-01-31T01:02:35.698Z,29.4070
2024-01-31T01:02:46.764Z,29.4120
2024-01-31T01:02:57.835Z,29.4170
2024-01-31T01:03:08.898Z,29.4230
2024-01-31T01:03:19.989Z,29.4230
2024-01-31T01:03:31.082Z,29.4400
2024-01-31T01:03:42.190Z,29.4430
2024-01-31T01:03:53.277Z,29.4320
2024-01-31T01:04:04.493Z,29.4370
2024-01-31T01:04:15.830Z,29.4320
2024-01-31T01:04:27.323Z,29.4050
2024-01-31T01:04:38.505Z,29.3950
2024-01-31T01:04:49.585Z,29.3850
2024-01-31T01:05:00.919Z,29.4070
2024-01-31T01:05:12.090Z,29.4070
2024-01-31T01:05:23.250Z,29.4170
2024-01-31T01:05:34.303Z,29.4230
2024-01-31T01:05:45.357Z,29.4070
2024-01-31T01:05:56.466Z,29.4070
2024-01-31T01:06:07.511Z,29.3850
2024-01-31T01:06:18.687Z,29.3580
2024-01-31T01:06:29.793Z,29.3410
2024-01-31T01:06:40.977Z,29.3240
2024-01-31T01:06:52.095Z,29.3630
2024-01-31T01:07:03.253Z,29.3690
2024-01-31T01:07:14.372Z,29.3800
2024-01-31T01:07:25.446Z,29.4010
2024-01-31T01:07:36.598Z,29.4010
2024-01-31T01:07:47.744Z,29.4070
2024-01-31T01:07:58.782Z,29.4000
2024-01-31T01:08:09.834Z,29.3850
2024-01-31T01:08:20.906Z,29.3800
2024-01-31T01:08:31.961Z,29.3850
2024-01-31T01:08:43.004Z,29.3900
2024-01-31T01:08:54.078Z,29.3850
2024-01-31T01:09:05.155Z,29.3960
2024-01-31T01:09:16.216Z,29.3960
2024-01-31T01:09:27.257Z,29.3470
2024-01-31T01:09:38.342Z,29.3470
2024-01-31T01:09:49.441Z,29.3690
2024-01-31T01:10:00.561Z,29.3850
2024-01-31T01:10:11.679Z,29.3850
2024-01-31T01:10:22.803Z,29.3800
2024-01-31T01:10:33.859Z,29.3960
2024-01-31T01:10:45.067Z,29.3630
2024-01-31T01:10:56.136Z,29.3350
2024-01-31T01:11:07.205Z,29.3140
2024-01-31T01:11:18.264Z,29.2870
2024-01-31T01:11:29.301Z,29.3080
2024-01-31T01:11:40.350Z,29.3350
2024-01-31T01:11:51.384Z,29.3580
2024-01-31T01:12:02.439Z,29.3740
2024-01-31T01:12:13.481Z,29.3800
2024-01-31T01:12:24.619Z,29.3470
2024-01-31T01:12:35.681Z,29.3470
2024-01-31T01:12:46.724Z,29.3530
2024-01-31T01:12:57.797Z,29.3530
2024-01-31T01:13:08.856Z,29.3630
2024-01-31T01:13:19.969Z,29.3580
2024-01-31T01:13:30.996Z,29.3580
2024-01-31T01:13:42.111Z,29.3690
2024-01-31T01:13:53.178Z,29.3690
2024-01-31T01:14:04.234Z,29.3740
2024-01-31T01:14:17.262Z,29.3800
2024-01-31T01:14:29.805Z,29.4770
2024-01-31T01:14:40.895Z,29.4320
2024-01-31T01:14:56.544Z,29.4160
2024-01-31T01:15:15.360Z,29.5430
2024-01-31T01:15:25.783Z,29.6120
2024-01-31T01:15:36.845Z,29.5550
2024-01-31T01:15:47.889Z,29.4740
2024-01-31T01:15:58.963Z,29.4420
2024-01-31T01:16:10.077Z,29.4050
2024-01-31T01:16:21.191Z,29.4050
2024-01-31T01:16:32.284Z,29.4050
2024-01-31T01:16:43.385Z,29.4000
2024-01-31T01:16:54.436Z,29.4000
2024-01-31T01:17:05.486Z,29.3950
2024-01-31T01:17:16.503Z,29.3840
2024-01-31T01:17:27.558Z,29.3890
2024-01-31T01:17:38.624Z,29.3840
2024-01-31T01:17:49.695Z,29.3720
2024-01-31T01:18:00.804Z,29.3720
2024-01-31T01:18:11.965Z,29.3610
2024-01-31T01:18:23.034Z,29.3340
2024-01-31T01:18:34.069Z,29.3280
2024-01-31T01:18:45.133Z,29.3440
2024-01-31T01:18:56.209Z,29.3390
2024-01-31T01:19:07.330Z,29.3500
2024-01-31T01:19:18.432Z,29.3660
2024-01-31T01:19:29.611Z,29.3720
2024-01-31T01:19:40.810Z,29.3550
2024-01-31T01:19:52.061Z,29.3280
2024-01-31T01:20:03.362Z,29.3390
2024-01-31T01:20:14.477Z,29.3340
2024-01-31T01:20:25.559Z,29.3340
2024-01-31T01:20:36.681Z,29.3440
2024-01-31T01:20:47.912Z,29.3390
2024-01-31T01:20:59.024Z,29.3390
2024-01-31T01:21:10.073Z,29.3340
2024-01-31T01:21:21.136Z,29.3120
2024-01-31T01:21:32.193Z,29.2730
2024-01-31T01:21:43.247Z,29.2620
2024-01-31T01:21:54.289Z,29.2700
2024-01-31T01:22:05.378Z,29.2960
2024-01-31T01:22:16.427Z,29.3010
2024-01-31T01:22:27.487Z,29.3070
2024-01-31T01:22:38.700Z,29.3070
2024-01-31T01:22:49.750Z,29.3180
2024-01-31T01:23:00.815Z,29.3070
2024-01-31T01:23:11.880Z,29.3180
2024-01-31T01:23:22.911Z,29.2890
2024-01-31T01:23:33.968Z,29.3070
2024-01-31T01:23:45.010Z,29.2890
2024-01-31T01:23:56.065Z,29.2840
2024-01-31T01:24:07.128Z,29.2840
2024-01-31T01:24:18.190Z,29.2570
2024-01-31T01:24:29.215Z,29.2510
2024-01-31T01:24:40.256Z,29.2350
2024-01-31T01:24:51.313Z,29.2190
2024-01-31T01:25:02.503Z,29.2190
2024-01-31T01:25:13.655Z,29.2020
2024-01-31T01:25:24.790Z,29.2210
2024-01-31T01:25:35.923Z,29.2310
2024-01-31T01:25:47.017Z,29.2100
2024-01-31T01:25:58.062Z,29.1990
2024-01-31T01:26:09.103Z,29.1880
2024-01-31T01:26:20.156Z,29.1760
2024-01-31T01:26:31.206Z,29.1760
2024-01-31T01:26:42.300Z,29.1600
2024-01-31T01:26:53.350Z,29.1600
2024-01-31T01:27:04.414Z,29.1490
2024-01-31T01:27:15.475Z,29.1550
2024-01-31T01:27:26.527Z,29.1440
2024-01-31T01:27:37.588Z,29.1490
2024-01-31T01:27:48.653Z,29.1380
2024-01-31T01:27:59.774Z,29.1280
2024-01-31T01:28:10.889Z,29.1140
2024-01-31T01:28:22.029Z,29.1250
2024-01-31T01:28:33.096Z,29.1140
2024-01-31T01:28:44.158Z,29.1250
2024-01-31T01:28:55.259Z,29.1250
2024-01-31T01:29:06.339Z,29.1140
2024-01-31T01:29:17.406Z,29.1090
2024-01-31T01:29:28.470Z,29.0930
2024-01-31T01:29:39.527Z,29.0870
2024-01-31T01:29:50.597Z,29.0930
2024-01-31T01:30:01.645Z,29.0760
2024-01-31T01:30:12.728Z,29.0820
2024-01-31T01:30:23.868Z,29.0550
2024-01-31T01:30:34.928Z,29.0600
2024-01-31T01:30:45.982Z,29.0430
2024-01-31T01:30:57.098Z,29.0550
2024-01-31T01:31:08.308Z,29.0380
2024-01-31T01:31:19.492Z,29.0320
2024-01-31T01:31:30.605Z,29.0430
2024-01-31T01:31:41.959Z,29.0380
2024-01-31T01:31:53.537Z,29.0500
2024-01-31T01:32:04.873Z,29.0600
2024-01-31T01:32:15.904Z,29.0500
2024-01-31T01:32:26.952Z,29.0270
2024-01-31T01:32:38.144Z,29.0320
2024-01-31T01:32:49.267Z,29.0160
2024-01-31T01:33:00.356Z,29.0000
2024-01-31T01:33:11.449Z,28.9780
2024-01-31T01:33:22.644Z,28.9840
2024-01-31T01:33:33.840Z,28.9890
2024-01-31T01:33:45.008Z,28.9890
2024-01-31T01:33:56.130Z,28.9780
2024-01-31T01:34:07.217Z,28.9840
2024-01-31T01:34:18.389Z,28.9940
2024-01-31T01:34:29.594Z,28.9890
2024-01-31T01:34:40.802Z,28.9680
2024-01-31T01:34:52.009Z,28.9730
2024-01-31T01:35:03.111Z,28.9610
2024-01-31T01:35:14.326Z,28.9500
2024-01-31T01:35:25.349Z,28.9450
2024-01-31T01:35:36.432Z,28.9450
2024-01-31T01:35:47.488Z,28.9500
2024-01-31T01:35:58.549Z,28.9340
2024-01-31T01:36:09.609Z,28.9230
2024-01-31T01:36:20.665Z,28.9070
2024-01-31T01:36:31.774Z,28.9180
2024-01-31T01:36:42.807Z,28.9020
2024-01-31T01:36:53.875Z,28.9070
2024-01-31T01:37:04.968Z,28.8960
2024-01-31T01:37:16.075Z,28.9020
2024-01-31T01:37:27.156Z,28.8960
2024-01-31T01:37:38.271Z,28.8960
2024-01-31T01:37:49.947Z,28.9140
2024-01-31T01:38:01.070Z,28.9070
2024-01-31T01:38:12.110Z,28.8960
2024-01-31T01:38:23.163Z,28.8840
2024-01-31T01:38:34.234Z,28.8740
2024-01-31T01:38:45.288Z,28.8790
2024-01-31T01:38:56.368Z,28.8910
2024-01-31T01:39:08.675Z,28.8910
2024-01-31T01:39:20.852Z,28.9500
2024-01-31T01:39:31.895Z,28.9290
2024-01-31T01:39:42.959Z,28.9070
2024-01-31T01:39:54.017Z,28.8840
2024-01-31T01:40:05.106Z,28.8840
2024-01-31T01:40:16.188Z,28.8680
2024-01-31T01:40:27.302Z,28.8680
2024-01-31T01:40:38.376Z,28.8910
2024-01-31T01:40:49.536Z,28.8740
2024-01-31T01:41:00.680Z,28.8840
2024-01-31T01:41:11.706Z,28.8910
2024-01-31T01:41:22.761Z,28.8740
2024-01-31T01:41:33.806Z,28.8840
2024-01-31T01:41:44.868Z,28.8680
2024-01-31T01:41:55.939Z,28.8740
2024-01-31T01:42:07.005Z,28.8740
2024-01-31T01:42:18.090Z,28.8740
2024-01-31T01:42:29.163Z,28.8680
2024-01-31T01:42:40.232Z,28.8570
2024-01-31T01:42:51.260Z,28.8520
2024-01-31T01:43:02.365Z,28.8520
2024-01-31T01:43:13.485Z,28.8360
2024-01-31T01:43:24.625Z,28.8410
2024-01-31T01:43:35.791Z,28.8470
2024-01-31T01:43:46.935Z,28.8520
2024-01-31T01:43:57.987Z,28.8520
2024-01-31T01:44:09.045Z,28.8410
2024-01-31T01:44:20.103Z,28.8520
2024-01-31T01:44:31.163Z,28.8470
2024-01-31T01:44:42.216Z,28.8520
2024-01-31T01:44:53.261Z,28.8520
2024-01-31T01:45:04.310Z,28.8520
2024-01-31T01:45:15.372Z,28.8630
2024-01-31T01:45:26.458Z,28.8470
2024-01-31T01:45:37.488Z,28.8360
2024-01-31T01:45:48.509Z,28.8360
2024-01-31T01:45:59.634Z,28.8250
2024-01-31T01:46:10.728Z,28.8310
2024-01-31T01:46:21.862Z,28.8410
2024-01-31T01:46:32.975Z,28.8520
2024-01-31T01:46:44.039Z,28.8680
2024-01-31T01:46:55.068Z,28.8520
2024-01-31T01:47:06.116Z,28.8520
2024-01-31T01:47:17.155Z,28.8520
2024-01-31T01:47:28.220Z,28.8470
2024-01-31T01:47:39.278Z,28.8630
2024-01-31T01:47:50.451Z,28.8520
2024-01-31T01:48:01.660Z,28.8790
2024-01-31T01:48:12.839Z,28.8740
2024-01-31T01:48:23.918Z,28.8570
2024-01-31T01:48:35.021Z,28.8570
2024-01-31T01:48:46.121Z,28.8570
2024-01-31T01:48:57.291Z,28.8680
2024-01-31T01:49:08.414Z,28.8630
2024-01-31T01:49:19.636Z,28.8630
2024-01-31T01:49:30.731Z,28.8740
2024-01-31T01:49:41.803Z,28.8680
2024-01-31T01:49:53.038Z,28.8680
2024-01-31T01:50:04.139Z,28.8630
2024-01-31T01:50:15.189Z,28.8570
2024-01-31T01:50:26.236Z,28.8600
2024-01-31T01:50:37.315Z,28.8480
2024-01-31T01:50:48.348Z,28.8570
2024-01-31T01:50:59.404Z,28.8630
2024-01-31T01:51:10.461Z,28.8650
2024-01-31T01:51:56.860Z,28.8680
2024-01-31T01:52:07.945Z,29.3920
2024-01-31T01:52:19.051Z,29.1730
2024-01-31T01:52:30.133Z,29.0510
2024-01-31T01:52:41.268Z,28.9900
2024-01-31T01:52:52.374Z,28.9590
2024-01-31T01:53:03.435Z,28.9490
2024-01-31T01:53:14.453Z,28.9270
2024-01-31T01:53:25.535Z,28.9120
2024-01-31T01:53:36.573Z,28.9180
2024-01-31T01:53:50.977Z,28.9180
2024-01-31T01:54:03.045Z,29.0160
2024-01-31T01:54:14.108Z,28.9810
2024-01-31T01:54:25.173Z,28.9500
2024-01-31T01:54:36.254Z,28.9230
2024-01-31T01:54:47.313Z,28.9180
2024-01-31T01:54:58.402Z,28.9180
2024-01-31T01:55:09.613Z,28.9070
2024-01-31T01:55:20.766Z,28.9120
2024-01-31T01:55:31.928Z,28.8910
2024-01-31T01:55:43.225Z,28.9070
2024-01-31T01:55:54.418Z,28.9020
2024-01-31T01:56:05.469Z,28.9070
2024-01-31T01:56:16.516Z,28.8960
2024-01-31T01:56:27.567Z,28.9020
2024-01-31T01:56:38.628Z,28.9020
2024-01-31T01:56:49.688Z,28.9120
2024-01-31T01:57:00.709Z,28.9180
2024-01-31T01:57:11.758Z,28.9020
2024-01-31T01:57:22.793Z,28.9020
2024-01-31T01:57:33.843Z,28.9120
2024-01-31T01:57:44.876Z,28.9070
2024-01-31T01:57:55.961Z,28.9020
2024-01-31T01:58:07.057Z,28.9180
2024-01-31T01:58:18.153Z,28.8960
2024-01-31T01:58:29.209Z,28.9070
2024-01-31T01:58:40.261Z,28.8960
2024-01-31T01:58:51.290Z,28.9020
2024-01-31T01:59:02.353Z,28.9020
2024-01-31T01:59:13.418Z,28.8910
2024-01-31T01:59:24.515Z,28.8960
2024-01-31T01:59:35.755Z,28.8840
2024-01-31T01:59:46.823Z,28.8910
2024-01-31T01:59:57.894Z,28.8910
2024-01-31T02:00:08.958Z,28.8910
2024-01-31T02:00:20.008Z,28.8840
2024-01-31T02:00:31.047Z,28.8840
2024-01-31T02:00:42.106Z,28.8840
2024-01-31T02:00:53.219Z,28.8680
2024-01-31T02:01:04.345Z,28.8680
2024-01-31T02:01:15.556Z,28.8680
2024-01-31T02:01:27.023Z,28.8840
2024-01-31T02:01:38.191Z,28.8680
2024-01-31T02:01:49.323Z,28.8740
2024-01-31T02:02:01.006Z,28.8840
2024-01-31T02:02:12.068Z,28.8790
2024-01-31T02:02:23.113Z,28.8570
2024-01-31T02:02:34.153Z,28.8570
2024-01-31T02:02:45.239Z,28.8410
2024-01-31T02:02:56.260Z,28.8320
2024-01-31T02:03:07.388Z,28.8210
2024-01-31T02:03:18.413Z,28.8160
2024-01-31T02:03:29.475Z,28.8100
2024-01-31T02:03:40.561Z,28.8160
2024-01-31T02:03:51.626Z,28.8000
2024-01-31T02:04:02.730Z,28.7940
2024-01-31T02:04:13.869Z,28.7890
2024-01-31T02:04:24.987Z,28.7890
2024-01-31T02:04:36.228Z,28.7780
2024-01-31T02:04:47.670Z,28.7780
2024-01-31T02:04:58.857Z,28.7710
2024-01-31T02:05:10.121Z,28.7710
2024-01-31T02:05:21.240Z,28.7660
2024-01-31T02:05:32.398Z,28.7610
2024-01-31T02:05:43.466Z,28.7340
2024-01-31T02:05:54.574Z,28.7290
2024-01-31T02:06:05.768Z,28.7340
2024-01-31T02:06:17.264Z,28.7450
2024-01-31T02:06:28.465Z,28.7340
2024-01-31T02:06:39.603Z,28.7230
2024-01-31T02:06:50.708Z,28.7230
2024-01-31T02:07:01.867Z,28.7290
2024-01-31T02:07:13.031Z,28.7320
2024-01-31T02:07:24.175Z,28.7290
2024-01-31T02:07:35.346Z,28.7290
2024-01-31T02:07:46.397Z,28.7230
2024-01-31T02:07:57.528Z,28.7070
2024-01-31T02:08:08.761Z,28.7070
2024-01-31T02:08:19.839Z,28.6960
2024-01-31T02:08:30.889Z,28.6780
2024-01-31T02:08:41.931Z,28.6610
2024-01-31T02:08:52.995Z,28.6560
2024-01-31T02:09:04.032Z,28.6390
2024-01-31T02:09:15.066Z,28.6450
2024-01-31T02:09:26.127Z,28.6360
2024-01-31T02:09:37.193Z,28.6360
2024-01-31T02:09:48.236Z,28.6410
2024-01-31T02:09:59.322Z,28.6250
2024-01-31T02:10:10.419Z,28.6390
2024-01-31T02:10:21.455Z,28.6230
2024-01-31T02:10:32.517Z,28.6230
2024-01-31T02:10:43.746Z,28.6280
2024-01-31T02:10:54.970Z,28.6250
2024-01-31T02:11:06.012Z,28.6130
2024-01-31T02:11:17.066Z,28.6130
2024-01-31T02:11:28.141Z,28.6030
2024-01-31T02:11:39.171Z,28.5920
2024-01-31T02:11:50.232Z,28.5860
2024-01-31T02:12:01.279Z,28.5920
2024-01-31T02:12:12.334Z,28.5970
2024-01-31T02:12:23.382Z,28.5970
2024-01-31T02:12:34.443Z,28.5920
2024-01-31T02:12:45.494Z,28.5920
2024-01-31T02:12:56.582Z,28.5920
2024-01-31T02:13:07.675Z,28.5970
2024-01-31T02:13:18.738Z,28.5920
2024-01-31T02:13:29.850Z,28.5920
2024-01-31T02:13:41.034Z,28.5970
2024-01-31T02:13:52.117Z,28.5920
2024-01-31T02:14:03.174Z,28.5920
2024-01-31T02:14:14.236Z,28.5860
2024-01-31T02:14:25.300Z,28.5860
2024-01-31T02:14:36.326Z,28.5920
2024-01-31T02:14:47.376Z,28.5920
2024-01-31T02:14:58.427Z,28.6030
2024-01-31T02:15:09.489Z,28.6030
2024-01-31T02:15:20.545Z,28.5920
2024-01-31T02:15:31.594Z,28.5920
2024-01-31T02:15:42.646Z,28.6030
2024-01-31T02:15:53.714Z,28.5960
2024-01-31T02:16:04.938Z,28.6010
2024-01-31T02:16:16.089Z,28.6030
2024-01-31T02:16:27.151Z,28.5920
2024-01-31T02:16:38.261Z,28.6130
2024-01-31T02:16:49.370Z,28.6250
2024-01-31T02:17:00.389Z,28.6120